Terminal Aerodrome Forecast
Issued by NWS Upton, NY

Home | Current Version | Previous Version | Text Only | Print | Product List | Glossary On
Versions: 1 2 3 4 5 6 7 8 9 10 11 12 13 14 15 16 17 18 19 20 21 22 23 24 25 26 27 28 29 30 31 32 33 34 35
000
FTUS41 KOKX 270237 AAC
TAFLGA
TAF AMD
KLGA 270237Z 2703/2724 35010KT 5SM -RA BR SCT008 BKN015
      TEMPO 2703/2705 3SM RA BR SCT015 BKN030
     FM270500 35012G20KT 4SM -RA BR BKN015
     FM271400 35009KT 6SM -RA BKN015
     FM271700 35008KT P6SM FEW015 BKN080=

USA.gov is the U.S. government's official web portal to all federal, state and local government web resources and services.